Time;durP1;ratioP1;P1;durP2;ratioP2;P2;SDS_P1;SDS_P2;PMS_P1;PMS_P2;Temp;Humidity;BMP_temperature;BMP_pressure;BME280_temperature;BME280_humidity;BME280_pressure;Samples;Min_cycle;Max_cycle;Signal;HPM_P1;HPM_P2
2023/08/20 00:01:32;;;;;;;14.02;9.82;;;;;;;-145.33;100.00;60416.63;5008422;28;20742;-25
2023/08/20 00:03:57;;;;;;;13.35;10.40;;;;;;;-145.33;100.00;60416.63;5008147;28;20030;-23
2023/08/20 00:06:23;;;;;;;14.65;10.30;;;;;;;-145.33;100.00;60416.63;5008258;28;20083;-23
2023/08/20 00:08:51;;;;;;;13.57;9.80;;;;;;;-145.33;100.00;60416.63;5008011;28;20030;-23
2023/08/20 00:11:17;;;;;;;12.20;9.57;;;;;;;-145.33;100.00;60416.63;5008188;28;20022;-23
2023/08/20 00:13:43;;;;;;;12.77;9.77;;;;;;;-145.33;100.00;60416.63;5008336;28;20034;-25
2023/08/20 00:16:09;;;;;;;12.68;9.85;;;;;;;-145.33;100.00;60416.63;5008052;28;20034;-23
2023/08/20 00:18:35;;;;;;;13.15;9.43;;;;;;;-145.33;100.00;60416.63;5008207;28;20022;-23
2023/08/20 00:21:00;;;;;;;14.48;10.00;;;;;;;-145.33;100.00;60416.63;5007669;28;20420;-23
2023/08/20 00:23:27;;;;;;;18.83;12.73;;;;;;;-145.33;100.00;60416.63;5008046;28;20021;-23
2023/08/20 00:25:52;;;;;;;20.88;13.18;;;;;;;-145.33;100.00;60416.63;5007976;28;20025;-23
2023/08/20 00:28:20;;;;;;;20.55;13.38;;;;;;;-145.33;100.00;60416.63;5007824;28;20030;-23
2023/08/20 00:30:46;;;;;;;19.42;12.05;;;;;;;-145.33;100.00;60416.63;5008021;28;20079;-23
2023/08/20 00:33:11;;;;;;;21.85;13.63;;;;;;;-145.33;100.00;60416.63;5007847;28;20038;-22
2023/08/20 00:35:37;;;;;;;23.23;14.43;;;;;;;-145.33;100.00;60416.63;5007806;28;20524;-24
2023/08/20 00:38:04;;;;;;;20.95;12.77;;;;;;;-145.33;100.00;60416.63;5007537;28;20425;-24
2023/08/20 00:40:31;;;;;;;23.83;14.70;;;;;;;-145.33;100.00;60416.63;5007656;28;20104;-25
2023/08/20 00:42:56;;;;;;;27.60;16.67;;;;;;;-145.33;100.00;60416.63;5007484;28;20073;-25
2023/08/20 00:45:22;;;;;;;23.38;14.30;;;;;;;-145.33;100.00;60416.63;5007856;28;20096;-23
2023/08/20 00:47:48;;;;;;;22.10;11.75;;;;;;;-145.33;100.00;60416.63;5007337;28;20053;-26
2023/08/20 00:50:14;;;;;;;18.63;11.40;;;;;;;-145.33;100.00;60416.63;5007493;28;20549;-25
2023/08/20 00:52:40;;;;;;;18.27;11.10;;;;;;;-145.33;100.00;60416.63;5007330;28;20556;-24
2023/08/20 00:55:09;;;;;;;17.58;12.25;;;;;;;-145.33;100.00;60416.63;5007466;28;20030;-23
2023/08/20 00:57:36;;;;;;;19.55;11.55;;;;;;;-145.33;100.00;60416.63;5007278;28;20030;-23
2023/08/20 01:00:06;;;;;;;19.70;10.70;;;;;;;-145.33;100.00;60416.63;5007306;28;20033;-25
2023/08/20 01:02:32;;;;;;;16.85;9.77;;;;;;;-145.33;100.00;60416.63;5007155;28;20034;-24
2023/08/20 01:04:59;;;;;;;14.75;10.50;;;;;;;-145.33;100.00;60416.63;5007379;28;20038;-23
2023/08/20 01:07:33;;;;;;;15.98;10.85;;;;;;;-145.33;100.00;60416.63;5006822;28;20046;-28
2023/08/20 01:10:17;;;;;;;16.88;11.15;;;;;;;-145.33;100.00;60416.63;5006949;28;20026;-29
2023/08/20 01:12:44;;;;;;;15.95;10.55;;;;;;;-145.33;100.00;60416.63;5006903;28;20038;-24
2023/08/20 01:15:13;;;;;;;14.70;11.40;;;;;;;-145.33;100.00;60416.63;5006978;28;20096;-24
2023/08/20 01:17:42;;;;;;;15.80;11.90;;;;;;;-145.33;100.00;60416.63;5007238;28;20030;-23
2023/08/20 01:20:11;;;;;;;14.35;11.40;;;;;;;-145.33;100.00;60416.63;5006759;28;20036;-24
2023/08/20 01:22:58;;;;;;;15.73;11.77;;;;;;;-145.33;100.00;60416.63;5006862;28;20037;-25
2023/08/20 01:25:26;;;;;;;14.83;11.07;;;;;;;-145.33;100.00;60416.63;5006617;28;20030;-23
2023/08/20 01:27:51;;;;;;;15.43;11.27;;;;;;;-145.33;100.00;60416.63;5006920;28;20033;-23
2023/08/20 01:30:21;;;;;;;26.50;16.55;;;;;;;-145.33;100.00;60416.63;5006467;28;20036;-28
2023/08/20 01:32:53;;;;;;;33.47;21.02;;;;;;;-145.33;100.00;60416.63;5006736;28;20025;-23
2023/08/20 01:35:18;;;;;;;34.70;23.50;;;;;;;-145.33;100.00;60416.63;5006701;28;20152;-24
2023/08/20 01:37:44;;;;;;;26.88;19.15;;;;;;;-145.33;100.00;60416.63;5006694;28;20117;-24
2023/08/20 01:40:10;;;;;;;30.38;19.88;;;;;;;-145.33;100.00;60416.63;5006367;28;20026;-23
2023/08/20 01:42:40;;;;;;;23.58;15.52;;;;;;;-145.33;100.00;60416.63;5006642;28;20025;-23
2023/08/20 01:45:07;;;;;;;21.98;14.57;;;;;;;-145.33;100.00;60416.63;5006522;28;20192;-23
2023/08/20 01:47:33;;;;;;;17.87;13.67;;;;;;;-145.33;100.00;60416.63;5006555;28;20061;-24
2023/08/20 01:49:58;;;;;;;15.40;11.60;;;;;;;-145.33;100.00;60416.63;5006353;28;20048;-23
2023/08/20 01:52:29;;;;;;;15.10;11.57;;;;;;;-145.33;100.00;60416.63;5006419;28;20429;-23
2023/08/20 01:54:54;;;;;;;17.85;12.60;;;;;;;-145.33;100.00;60416.63;5006495;28;20030;-23
2023/08/20 01:57:20;;;;;;;23.20;14.70;;;;;;;-145.33;100.00;60416.63;5006311;28;20565;-23
2023/08/20 01:59:45;;;;;;;21.02;13.15;;;;;;;-145.33;100.00;60416.63;5006441;28;20038;-33
2023/08/20 02:02:10;;;;;;;25.90;18.45;;;;;;;-145.33;100.00;60416.63;5005905;28;20076;-23
2023/08/20 02:04:36;;;;;;;36.63;15.10;;;;;;;-145.33;100.00;60416.63;5006203;28;20063;-24
2023/08/20 02:07:01;;;;;;;20.73;15.02;;;;;;;-145.33;100.00;60416.63;5005926;28;20042;-23
2023/08/20 02:09:27;;;;;;;31.27;22.88;;;;;;;-145.33;100.00;60416.63;5006275;28;20556;-23
2023/08/20 02:11:52;;;;;;;35.85;25.55;;;;;;;-145.33;100.00;60416.63;5006046;28;20044;-24
2023/08/20 02:14:18;;;;;;;34.45;20.27;;;;;;;-145.33;100.00;60416.63;5005769;28;20738;-30
2023/08/20 02:16:44;;;;;;;35.45;22.33;;;;;;;-145.33;100.00;60416.63;5006038;28;20029;-23
2023/08/20 02:19:10;;;;;;;33.50;23.23;;;;;;;-145.33;100.00;60416.63;5005674;28;20029;-23
2023/08/20 02:21:36;;;;;;;42.42;28.30;;;;;;;-145.33;100.00;60416.63;5005856;28;20025;-24
2023/08/20 02:24:01;;;;;;;48.85;33.47;;;;;;;-145.33;100.00;60416.63;5005701;28;20026;-24
2023/08/20 02:26:27;;;;;;;37.40;26.67;;;;;;;-145.33;100.00;60416.63;5005661;28;20021;-23
2023/08/20 02:28:52;;;;;;;37.70;24.98;;;;;;;-145.33;100.00;60416.63;5005588;28;20033;-23
2023/08/20 02:31:17;;;;;;;37.00;24.15;;;;;;;-145.33;100.00;60416.63;5005503;28;20032;-29
2023/08/20 02:33:43;;;;;;;27.90;18.52;;;;;;;-145.33;100.00;60416.63;5005561;28;20421;-24
2023/08/20 02:36:08;;;;;;;21.02;14.60;;;;;;;-145.33;100.00;60416.63;5005646;28;20028;-25
2023/08/20 02:38:34;;;;;;;21.98;15.68;;;;;;;-145.33;100.00;60416.63;5005437;28;20038;-23
2023/08/20 02:41:00;;;;;;;21.33;16.55;;;;;;;-145.33;100.00;60416.63;5005607;28;20096;-25
2023/08/20 02:43:26;;;;;;;17.15;12.43;;;;;;;-145.33;100.00;60416.63;5005631;28;20025;-24
2023/08/20 02:45:51;;;;;;;84.53;39.47;;;;;;;-145.33;100.00;60416.63;5005369;28;20025;-23
2023/08/20 02:48:17;;;;;;;62.33;32.75;;;;;;;-145.33;100.00;60416.63;5005584;28;20041;-23
2023/08/20 02:50:43;;;;;;;81.85;38.78;;;;;;;-145.33;100.00;60416.63;5005612;28;20060;-23
2023/08/20 02:53:08;;;;;;;59.38;31.73;;;;;;;-145.33;100.00;60416.63;5005558;28;20649;-24
2023/08/20 02:55:35;;;;;;;59.50;30.30;;;;;;;-145.33;100.00;60416.63;5005294;28;20105;-23
2023/08/20 02:58:01;;;;;;;53.92;28.60;;;;;;;-145.33;100.00;60416.63;5004903;28;20030;-25
2023/08/20 03:00:27;;;;;;;36.50;24.08;;;;;;;-145.33;100.00;60416.63;5004926;28;20034;-23
2023/08/20 03:02:53;;;;;;;24.58;15.70;;;;;;;-145.33;100.00;60416.63;5005517;28;20026;-23
2023/08/20 03:05:18;;;;;;;15.77;11.80;;;;;;;-145.33;100.00;60416.63;5005445;28;20449;-28
2023/08/20 03:07:44;;;;;;;19.02;11.40;;;;;;;-145.33;100.00;60416.63;5005360;28;20045;-23
2023/08/20 03:10:09;;;;;;;14.00;11.20;;;;;;;-145.33;100.00;60416.63;5004994;28;20030;-23
2023/08/20 03:12:35;;;;;;;19.02;11.82;;;;;;;-145.33;100.00;60416.63;5004794;28;20546;-24
2023/08/20 03:15:00;;;;;;;14.98;11.60;;;;;;;-145.33;100.00;60416.63;5005489;28;20022;-24
2023/08/20 03:17:26;;;;;;;14.38;10.65;;;;;;;-145.33;100.00;60416.63;5020172;28;20032;-24
2023/08/20 03:19:56;;;;;;;17.50;10.73;;;;;;;-145.33;100.00;60416.63;5005269;28;20030;-23
2023/08/20 03:22:22;;;;;;;14.23;11.20;;;;;;;-145.33;100.00;60416.63;5004710;28;20034;-24
2023/08/20 03:24:48;;;;;;;14.35;10.82;;;;;;;-145.33;100.00;60416.63;5005251;28;20113;-28
2023/08/20 03:27:16;;;;;;;17.25;11.52;;;;;;;-145.33;100.00;60416.63;5005072;28;20473;-23
2023/08/20 03:29:41;;;;;;;24.23;12.75;;;;;;;-145.33;100.00;60416.63;5004656;28;20037;-23
2023/08/20 03:32:07;;;;;;;25.55;14.65;;;;;;;-145.33;100.00;60416.63;5004855;28;20052;-24
2023/08/20 03:34:32;;;;;;;30.48;17.13;;;;;;;-145.33;100.00;60416.63;5006337;28;20034;-24
2023/08/20 03:36:58;;;;;;;19.40;14.15;;;;;;;-145.33;100.00;60416.63;5009142;28;20224;-24
2023/08/20 03:39:26;;;;;;;17.00;12.15;;;;;;;-145.33;100.00;60416.63;5008541;28;20417;-23
2023/08/20 03:41:52;;;;;;;19.60;12.57;;;;;;;-145.33;100.00;60416.63;5008705;28;20120;-24
2023/08/20 03:44:20;;;;;;;17.02;11.80;;;;;;;-145.33;100.00;60416.63;5008800;28;20030;-23
2023/08/20 03:46:45;;;;;;;;;;;;;;;-145.33;100.00;60416.63;5009144;28;20484;-23
2023/08/20 03:49:10;;;;;;;18.00;13.00;;;;;;;-145.33;100.00;60416.63;5008483;28;20445;-26
2023/08/20 03:51:36;;;;;;;24.92;15.57;;;;;;;-145.33;100.00;60416.63;5008709;28;20026;-22
2023/08/20 03:54:02;;;;;;;26.23;16.30;;;;;;;-145.33;100.00;60416.63;5008399;28;20032;-23
2023/08/20 03:56:27;;;;;;;19.15;13.45;;;;;;;-145.33;100.00;60416.63;5008317;28;20026;-23
2023/08/20 03:58:54;;;;;;;20.38;14.48;;;;;;;-145.33;100.00;60416.63;5008485;28;20026;-24
2023/08/20 04:01:19;;;;;;;23.73;15.27;;;;;;;-145.33;100.00;60416.63;5008036;28;20060;-25
2023/08/20 04:03:48;;;;;;;17.02;12.50;;;;;;;-145.33;100.00;60416.63;5008583;28;20053;-23
2023/08/20 04:06:14;;;;;;;17.42;11.48;;;;;;;-145.33;100.00;60416.63;5008297;28;20030;-23
2023/08/20 04:08:39;;;;;;;15.95;11.50;;;;;;;-145.33;100.00;60416.63;5008422;28;20064;-23
2023/08/20 04:11:05;;;;;;;14.73;10.35;;;;;;;-145.33;100.00;60416.63;5008053;28;20571;-23
2023/08/20 04:13:31;;;;;;;15.20;10.77;;;;;;;-145.33;100.00;60416.63;5007995;28;20065;-24
2023/08/20 04:15:57;;;;;;;17.92;10.43;;;;;;;-145.33;100.00;60416.63;5008140;28;20140;-23
2023/08/20 04:18:24;;;;;;;15.10;10.13;;;;;;;-145.33;100.00;60416.63;5008049;28;20044;-23
2023/08/20 04:20:51;;;;;;;15.68;9.90;;;;;;;-145.33;100.00;60416.63;5007905;28;20588;-25
2023/08/20 04:23:17;;;;;;;16.50;10.30;;;;;;;-145.33;100.00;60416.63;5008002;28;20041;-24
2023/08/20 04:25:42;;;;;;;17.98;10.05;;;;;;;-145.33;100.00;60416.63;5007900;28;20026;-24
2023/08/20 04:28:08;;;;;;;20.55;11.60;;;;;;;-145.33;100.00;60416.63;5008055;28;20164;-23
2023/08/20 04:30:35;;;;;;;16.50;10.50;;;;;;;-145.33;100.00;60416.63;5007877;28;20033;-23
2023/08/20 04:33:00;;;;;;;14.70;10.57;;;;;;;-145.33;100.00;60416.63;5007650;28;20152;-23
2023/08/20 04:35:26;;;;;;;15.63;11.30;;;;;;;-145.33;100.00;60416.63;5007798;28;20463;-23
2023/08/20 04:37:51;;;;;;;13.77;10.35;;;;;;;-145.33;100.00;60416.63;5007680;28;20030;-24
2023/08/20 04:40:16;;;;;;;22.50;13.40;;;;;;;-145.33;100.00;60416.63;5007448;28;20552;-23
2023/08/20 04:42:42;;;;;;;23.00;13.38;;;;;;;-145.33;100.00;60416.63;5007555;28;21254;-26
2023/08/20 04:45:08;;;;;;;15.57;12.20;;;;;;;-145.33;100.00;60416.63;5006953;28;20451;-23
2023/08/20 04:47:34;;;;;;;20.33;11.30;;;;;;;-145.33;100.00;60416.63;5007064;28;20083;-23
2023/08/20 04:49:59;;;;;;;16.83;10.80;;;;;;;-145.33;100.00;60416.63;5007340;28;20033;-24
2023/08/20 04:52:25;;;;;;;17.73;11.68;;;;;;;-145.33;100.00;60416.63;5007611;28;20069;-24
2023/08/20 04:54:50;;;;;;;14.75;11.57;;;;;;;-145.33;100.00;60416.63;5007168;28;20714;-24
2023/08/20 04:57:16;;;;;;;16.20;11.65;;;;;;;-145.33;100.00;60416.63;5007440;28;20087;-23
2023/08/20 04:59:44;;;;;;;18.48;11.68;;;;;;;-145.33;100.00;60416.63;5007257;28;20021;-24
2023/08/20 05:02:13;;;;;;;16.23;9.98;;;;;;;-145.33;100.00;60416.63;5007022;28;20048;-23
2023/08/20 05:04:39;;;;;;;16.48;11.45;;;;;;;-145.33;100.00;60416.63;5007415;28;20905;-23
2023/08/20 05:07:06;;;;;;;16.08;11.52;;;;;;;-145.33;100.00;60416.63;5007261;28;20054;-23
2023/08/20 05:09:33;;;;;;;16.30;11.20;;;;;;;-145.33;100.00;60416.63;5007093;28;20033;-23
2023/08/20 05:11:58;;;;;;;11.07;8.90;;;;;;;-145.33;100.00;60416.63;5007188;28;20030;-24
2023/08/20 05:14:24;;;;;;;12.95;8.90;;;;;;;-145.33;100.00;60416.63;5007146;28;20492;-24
2023/08/20 05:16:49;;;;;;;15.98;10.98;;;;;;;-145.33;100.00;60416.63;5007090;28;20037;-25
2023/08/20 05:19:14;;;;;;;14.32;10.48;;;;;;;-145.33;100.00;60416.63;5007428;28;20030;-23
2023/08/20 05:21:40;;;;;;;11.30;8.95;;;;;;;-145.33;100.00;60416.63;5006817;28;20066;-25
2023/08/20 05:24:06;;;;;;;14.48;9.35;;;;;;;-145.33;100.00;60416.63;5006805;28;20690;-23
2023/08/20 05:26:34;;;;;;;15.77;10.35;;;;;;;-145.33;100.00;60416.63;5006899;28;20036;-24
2023/08/20 05:28:59;;;;;;;11.70;9.63;;;;;;;-145.33;100.00;60416.63;5006953;28;20113;-23
2023/08/20 05:31:25;;;;;;;13.57;9.82;;;;;;;-145.33;100.00;60416.63;5006635;28;20029;-23
2023/08/20 05:33:55;;;;;;;12.88;9.63;;;;;;;-145.33;100.00;60416.63;5006951;28;20109;-26
2023/08/20 05:36:21;;;;;;;11.50;9.05;;;;;;;-145.33;100.00;60416.63;5006920;28;20026;-24
2023/08/20 05:38:46;;;;;;;12.15;8.60;;;;;;;-145.33;100.00;60416.63;4989276;28;20041;-23
2023/08/20 05:41:14;;;;;;;12.60;9.50;;;;;;;-145.33;100.00;60416.63;4987118;28;20069;-23
2023/08/20 05:43:42;;;;;;;12.90;9.50;;;;;;;-145.33;100.00;60416.63;4986904;28;20026;-27
2023/08/20 05:46:07;;;;;;;11.93;9.70;;;;;;;-145.33;100.00;60416.63;4986911;28;20025;-24
2023/08/20 05:48:32;;;;;;;13.25;9.60;;;;;;;-145.33;100.00;60416.63;4987099;28;20030;-24
2023/08/20 05:50:58;;;;;;;12.13;9.55;;;;;;;-145.33;100.00;60416.63;4986390;28;20034;-23
2023/08/20 05:53:26;;;;;;;20.25;10.18;;;;;;;-145.33;100.00;60416.63;4986985;28;20034;-26
2023/08/20 05:55:52;;;;;;;13.63;9.68;;;;;;;-145.33;100.00;60416.63;4986855;28;20089;-24
2023/08/20 05:58:17;;;;;;;13.52;10.00;;;;;;;-145.33;100.00;60416.63;4986103;28;20038;-23
2023/08/20 06:00:42;;;;;;;15.27;10.82;;;;;;;-145.33;100.00;60416.63;4986038;28;20140;-23
2023/08/20 06:03:08;;;;;;;18.08;11.38;;;;;;;-145.33;100.00;60416.63;4986771;28;20022;-24
2023/08/20 06:05:34;;;;;;;16.65;11.05;;;;;;;-145.33;100.00;60416.63;4986442;28;20030;-23
2023/08/20 06:08:00;;;;;;;15.27;9.35;;;;;;;-145.33;100.00;60416.63;4986117;28;20435;-24
2023/08/20 06:10:25;;;;;;;18.75;10.05;;;;;;;-145.33;100.00;60416.63;4986140;28;20030;-23
2023/08/20 06:12:50;;;;;;;17.08;10.88;;;;;;;-145.33;100.00;60416.63;4986452;28;20477;-23
2023/08/20 06:15:16;;;;;;;12.00;9.88;;;;;;;-145.33;100.00;60416.63;4986641;28;20030;-22
2023/08/20 06:17:41;;;;;;;15.43;12.00;;;;;;;-145.33;100.00;60416.63;4985747;28;20045;-23
2023/08/20 06:20:11;;;;;;;12.65;9.57;;;;;;;-145.33;100.00;60416.63;4986342;28;20026;-23
2023/08/20 06:22:37;;;;;;;15.40;10.60;;;;;;;-145.33;100.00;60416.63;4986328;28;20027;-23
2023/08/20 06:25:03;;;;;;;15.43;11.18;;;;;;;-145.33;100.00;60416.63;4986625;28;20026;-22
2023/08/20 06:27:28;;;;;;;22.15;15.98;;;;;;;-145.33;100.00;60416.63;4985937;28;20034;-24
2023/08/20 06:30:03;;;;;;;56.25;36.25;;;;;;;-145.33;100.00;60416.63;4986116;28;20030;-25
2023/08/20 06:32:28;;;;;;;18.38;12.00;;;;;;;-145.33;100.00;60416.63;4986112;28;20058;-23
2023/08/20 06:34:56;;;;;;;15.55;11.48;;;;;;;-145.33;100.00;60416.63;4985873;28;20088;-23
2023/08/20 06:37:22;;;;;;;14.52;9.48;;;;;;;-145.33;100.00;60416.63;4985862;28;20126;-23
2023/08/20 06:39:47;;;;;;;15.75;10.48;;;;;;;-145.33;100.00;60416.63;4985904;28;20120;-26
2023/08/20 06:42:13;;;;;;;14.48;11.07;;;;;;;-145.33;100.00;60416.63;4985569;28;20038;-23
2023/08/20 06:44:38;;;;;;;13.57;10.35;;;;;;;-145.33;100.00;60416.63;4985902;28;20081;-23
2023/08/20 06:47:04;;;;;;;16.45;12.18;;;;;;;-145.33;100.00;60416.63;4985905;28;20109;-23
2023/08/20 06:49:31;;;;;;;16.17;10.98;;;;;;;-145.33;100.00;60416.63;4985956;28;20258;-23
2023/08/20 06:51:57;;;;;;;;;;;;;;;-145.33;100.00;60416.63;4986222;28;20728;-25
2023/08/20 06:54:22;;;;;;;13.60;10.20;;;;;;;-145.33;100.00;60416.63;4985286;28;19988;-25
2023/08/20 06:56:48;;;;;;;13.15;10.55;;;;;;;-145.33;100.00;60416.63;4985378;28;20270;-23
2023/08/20 06:59:13;;;;;;;13.65;10.65;;;;;;;-145.33;100.00;60416.63;4985206;28;20772;-23
2023/08/20 07:01:38;;;;;;;12.40;10.20;;;;;;;-145.33;100.00;60416.63;4985437;28;20070;-23
2023/08/20 07:04:04;;;;;;;13.70;10.15;;;;;;;-145.33;100.00;60416.63;4985565;28;20034;-23
2023/08/20 07:06:30;;;;;;;15.48;10.77;;;;;;;-145.33;100.00;60416.63;4985537;28;20030;-23
2023/08/20 07:08:55;;;;;;;17.70;10.52;;;;;;;-145.33;100.00;60416.63;4984952;28;20023;-23
2023/08/20 07:11:21;;;;;;;14.05;11.15;;;;;;;-145.33;100.00;60416.63;4985356;28;20433;-23
2023/08/20 07:13:46;;;;;;;12.27;10.20;;;;;;;-145.33;100.00;60416.63;4985760;28;20084;-24
2023/08/20 07:16:12;;;;;;;15.18;10.00;;;;;;;-145.33;100.00;60416.63;4985607;28;20420;-23
2023/08/20 07:18:39;;;;;;;11.18;9.55;;;;;;;-145.33;100.00;60416.63;4985388;28;20031;-23
2023/08/20 07:21:07;;;;;;;11.82;9.15;;;;;;;-145.33;100.00;60416.63;4985429;28;20591;-24
2023/08/20 07:23:33;;;;;;;13.18;9.75;;;;;;;-145.33;100.00;60416.63;4985367;28;20502;-23
2023/08/20 07:26:09;;;;;;;11.43;9.48;;;;;;;-145.33;100.00;60416.63;4985434;28;20061;-23
2023/08/20 07:31:20;;;;;;;13.95;10.10;;;;;;;-145.33;100.00;60416.63;4985851;28;20527;-26
2023/08/20 07:33:49;;;;;;;11.23;9.43;;;;;;;-145.33;100.00;60416.63;4985416;28;20022;-23
2023/08/20 07:36:16;;;;;;;10.75;9.40;;;;;;;-145.33;100.00;60416.63;4985581;28;20037;-24
2023/08/20 07:38:42;;;;;;;11.52;9.60;;;;;;;-145.33;100.00;60416.63;4985473;28;20027;-23
2023/08/20 07:41:13;;;;;;;11.52;8.80;;;;;;;-145.33;100.00;60416.63;4985298;28;20027;-23
2023/08/20 07:43:39;;;;;;;11.60;9.23;;;;;;;-145.33;100.00;60416.63;4985011;28;20026;-26
2023/08/20 07:46:06;;;;;;;11.75;9.30;;;;;;;-145.33;100.00;60416.63;4985199;28;20030;-23
2023/08/20 07:48:31;;;;;;;12.77;8.88;;;;;;;-145.33;100.00;60416.63;4985336;28;20218;-23
2023/08/20 07:50:57;;;;;;;12.15;9.52;;;;;;;-145.33;100.00;60416.63;4984734;28;20128;-26
2023/08/20 07:53:23;;;;;;;11.93;8.40;;;;;;;-145.33;100.00;60416.63;4984367;28;20073;-26
2023/08/20 07:55:48;;;;;;;13.00;8.35;;;;;;;-145.33;100.00;60416.63;4985012;28;20270;-25
2023/08/20 07:58:13;;;;;;;9.27;8.15;;;;;;;-145.33;100.00;60416.63;4984458;28;20037;-23
2023/08/20 08:00:39;;;;;;;10.48;7.55;;;;;;;-145.33;100.00;60416.63;4984474;28;20031;-25
2023/08/20 08:03:04;;;;;;;11.65;7.22;;;;;;;-145.33;100.00;60416.63;4984906;28;20021;-23
2023/08/20 08:05:30;;;;;;;11.88;7.78;;;;;;;-145.33;100.00;60416.63;4984584;28;20052;-23
2023/08/20 08:07:55;;;;;;;10.02;7.72;;;;;;;-145.33;100.00;60416.63;4984274;28;20042;-24
2023/08/20 08:10:21;;;;;;;10.80;8.15;;;;;;;-145.33;100.00;60416.63;4984401;28;20026;-24
2023/08/20 08:12:47;;;;;;;10.20;8.10;;;;;;;-145.33;100.00;60416.63;4984625;28;20065;-23
2023/08/20 08:15:13;;;;;;;10.80;8.40;;;;;;;-145.33;100.00;60416.63;4984469;28;20026;-24
2023/08/20 08:17:38;;;;;;;12.35;7.85;;;;;;;-145.33;100.00;60416.63;4984452;28;20030;-24
2023/08/20 08:20:04;;;;;;;10.35;7.55;;;;;;;-145.33;100.00;60416.63;4985279;28;20673;-23
2023/08/20 08:22:30;;;;;;;8.80;7.20;;;;;;;-145.33;100.00;60416.63;4987998;28;20033;-23
2023/08/20 08:24:56;;;;;;;11.15;7.13;;;;;;;-145.33;100.00;60416.63;4988077;28;20026;-24
2023/08/20 08:27:22;;;;;;;8.05;7.18;;;;;;;-145.33;100.00;60416.63;4987849;28;20686;-24
2023/08/20 08:29:47;;;;;;;10.80;7.75;;;;;;;-145.33;100.00;60416.63;4988325;28;20030;-24
2023/08/20 08:32:13;;;;;;;9.50;6.95;;;;;;;-145.33;100.00;60416.63;4987846;28;20134;-23
2023/08/20 08:34:38;;;;;;;12.30;9.55;;;;;;;-145.33;100.00;60416.63;4987975;28;20758;-23
2023/08/20 08:37:04;;;;;;;10.77;8.02;;;;;;;-145.33;100.00;60416.63;4988020;28;20486;-24
2023/08/20 08:39:29;;;;;;;11.52;7.82;;;;;;;-145.33;100.00;60416.63;4988888;28;20073;-24
2023/08/20 08:42:04;;;;;;;8.57;7.28;;;;;;;-145.33;100.00;60416.63;4988890;28;20097;-27
2023/08/20 08:44:32;;;;;;;9.52;6.38;;;;;;;-145.33;100.00;60416.63;4988611;28;20026;-25
2023/08/20 08:46:58;;;;;;;10.45;7.00;;;;;;;-145.33;100.00;60416.63;4989171;28;20096;-23
2023/08/20 08:49:25;;;;;;;9.85;7.55;;;;;;;-145.33;100.00;60416.63;4988846;28;20022;-23
2023/08/20 08:51:51;;;;;;;;;;;;;;;-145.33;100.00;60416.63;4989513;28;20030;-23
2023/08/20 08:54:16;;;;;;;9.02;6.25;;;;;;;-145.33;100.00;60416.63;4988836;28;20357;-26
2023/08/20 08:56:42;;;;;;;8.32;6.60;;;;;;;-145.33;100.00;60416.63;4988747;28;20026;-23
2023/08/20 08:59:07;;;;;;;11.10;6.63;;;;;;;-145.33;100.00;60416.63;4988900;28;20043;-23
2023/08/20 09:01:38;;;;;;;8.52;6.75;;;;;;;-145.33;100.00;60416.63;4988657;28;20034;-24
2023/08/20 09:04:03;;;;;;;11.63;7.00;;;;;;;-145.33;100.00;60416.63;4988903;28;20666;-23
2023/08/20 09:06:45;;;;;;;9.48;6.55;;;;;;;-145.33;100.00;60416.63;4988749;28;20025;-23
2023/08/20 09:09:10;;;;;;;8.15;6.10;;;;;;;-145.33;100.00;60416.63;4988604;28;20043;-23
2023/08/20 09:11:36;;;;;;;8.02;6.07;;;;;;;-145.33;100.00;60416.63;4988823;28;20146;-24
2023/08/20 09:14:01;;;;;;;11.73;7.18;;;;;;;-145.33;100.00;60416.63;4988536;28;20035;-24
2023/08/20 09:16:31;;;;;;;10.85;7.13;;;;;;;-145.33;100.00;60416.63;4988627;28;20030;-23
2023/08/20 09:18:59;;;;;;;8.80;6.20;;;;;;;-145.33;100.00;60416.63;4988556;28;20034;-24
2023/08/20 09:21:29;;;;;;;8.02;5.80;;;;;;;-145.33;100.00;60416.63;4987979;28;20026;-24
2023/08/20 09:23:58;;;;;;;8.98;6.50;;;;;;;-145.33;100.00;60416.63;4988325;28;20094;-26
2023/08/20 09:26:24;;;;;;;9.88;6.63;;;;;;;-145.33;100.00;60416.63;4988254;28;20041;-23
2023/08/20 09:28:49;;;;;;;8.90;5.95;;;;;;;-145.33;100.00;60416.63;4988696;28;20022;-23
2023/08/20 09:31:15;;;;;;;8.02;6.20;;;;;;;-145.33;100.00;60416.63;4987924;28;20030;-26
2023/08/20 09:33:50;;;;;;;8.88;6.57;;;;;;;-145.33;100.00;60416.63;4987830;28;20034;-23
2023/08/20 09:36:16;;;;;;;7.55;5.70;;;;;;;-145.33;100.00;60416.63;4988581;28;20504;-23
2023/08/20 09:38:44;;;;;;;10.23;6.18;;;;;;;-145.33;100.00;60416.63;4988241;28;20034;-23
2023/08/20 09:41:12;;;;;;;9.00;5.97;;;;;;;-145.33;100.00;60416.63;4987767;28;20029;-23
2023/08/20 09:43:38;;;;;;;8.52;6.15;;;;;;;-145.33;100.00;60416.63;4988117;28;20034;-23
2023/08/20 09:46:05;;;;;;;9.82;6.95;;;;;;;-145.33;100.00;60416.63;4988552;28;20036;-24
2023/08/20 09:48:37;;;;;;;6.68;5.82;;;;;;;-145.33;100.00;60416.63;4987975;28;20026;-23
2023/08/20 09:51:06;;;;;;;7.75;5.45;;;;;;;-145.33;100.00;60416.63;4987819;28;20027;-24
2023/08/20 09:53:42;;;;;;;8.20;5.40;;;;;;;-145.33;100.00;60416.63;4987468;28;20601;-25
2023/08/20 09:56:14;;;;;;;9.57;5.70;;;;;;;-145.33;100.00;60416.63;4987829;28;20037;-23
2023/08/20 09:58:40;;;;;;;8.23;5.85;;;;;;;-145.33;100.00;60416.63;4987700;28;20045;-23
2023/08/20 10:01:06;;;;;;;7.60;5.85;;;;;;;-145.33;100.00;60416.63;4987743;28;20023;-24
2023/08/20 10:03:32;;;;;;;6.78;5.65;;;;;;;-145.33;100.00;60416.63;4987820;28;20045;-23
2023/08/20 10:06:00;;;;;;;8.20;5.45;;;;;;;-145.33;100.00;60416.63;4987525;28;20022;-24
2023/08/20 10:08:27;;;;;;;9.43;5.80;;;;;;;-145.33;100.00;60416.63;5002198;28;20042;-23
2023/08/20 10:10:52;;;;;;;9.93;5.53;;;;;;;-145.33;100.00;60416.63;5007288;28;20045;-23
2023/08/20 10:13:18;;;;;;;8.90;5.70;;;;;;;-145.33;100.00;60416.63;5007257;28;20041;-26
2023/08/20 10:15:45;;;;;;;7.82;5.38;;;;;;;-145.33;100.00;60416.63;5006870;28;20022;-23
2023/08/20 10:18:13;;;;;;;9.77;5.30;;;;;;;-145.33;100.00;60416.63;5006727;28;20022;-23
2023/08/20 10:20:42;;;;;;;7.75;5.50;;;;;;;-145.33;100.00;60416.63;5006930;28;20038;-23
2023/08/20 10:23:07;;;;;;;10.70;6.13;;;;;;;-145.33;100.00;60416.63;5006336;28;20092;-24
2023/08/20 10:25:41;;;;;;;8.85;5.47;;;;;;;-145.33;100.00;60416.63;5006838;28;20053;-25
2023/08/20 10:28:24;;;;;;;9.98;6.05;;;;;;;-145.33;100.00;60416.63;5006650;28;20449;-26
2023/08/20 10:31:15;;;;;;;8.30;5.20;;;;;;;-145.33;100.00;60416.63;5007161;28;20105;-23
2023/08/20 10:33:47;;;;;;;9.02;5.50;;;;;;;-145.33;100.00;60416.63;5006890;28;20567;-24
2023/08/20 10:36:22;;;;;;;7.82;5.80;;;;;;;-145.33;100.00;60416.63;5006564;28;20033;-23
2023/08/20 10:38:49;;;;;;;10.93;5.60;;;;;;;-145.33;100.00;60416.63;5006736;28;20030;-23
2023/08/20 10:41:16;;;;;;;7.45;5.40;;;;;;;-145.33;100.00;60416.63;4998598;28;20145;-25
2023/08/20 10:43:49;;;;;;;8.02;5.55;;;;;;;-145.33;100.00;60416.63;5005283;28;20045;-24
2023/08/20 10:46:20;;;;;;;7.18;5.30;;;;;;;-145.33;100.00;60416.63;5006582;28;20130;-24
2023/08/20 10:48:52;;;;;;;8.15;5.45;;;;;;;-145.33;100.00;60416.63;5006284;28;20037;-23
2023/08/20 10:51:27;;;;;;;7.00;5.05;;;;;;;-145.33;100.00;60416.63;5005605;28;20037;-26
2023/08/20 10:54:05;;;;;;;6.55;5.13;;;;;;;-145.33;100.00;60416.63;5005141;28;20069;-25
2023/08/20 10:56:41;;;;;;;8.27;5.30;;;;;;;-145.33;100.00;60416.63;5005640;28;20036;-23
2023/08/20 10:59:16;;;;;;;8.40;5.38;;;;;;;-145.33;100.00;60416.63;5005399;28;20453;-23
2023/08/20 11:01:46;;;;;;;7.75;5.40;;;;;;;-145.33;100.00;60416.63;5005180;28;20112;-23